Time;durP1;ratioP1;P1;durP2;ratioP2;P2;SDS_P1;SDS_P2;PMS_P1;PMS_P2;Temp;Humidity;BMP_temperature;BMP_pressure;BME280_temperature;BME280_humidity;BME280_pressure;Samples;Min_cycle;Max_cycle;Signal;HPM_P1;HPM_P2
2021/03/21 00:01:15;;;;;;;5.35;3.83;;;4.70;67.00;;;;;;5053943;28;20433;-79
2021/03/21 00:03:41;;;;;;;10.40;4.80;;;4.80;66.90;;;;;;5053677;28;20044;-78
2021/03/21 00:06:07;;;;;;;5.32;4.28;;;4.70;68.00;;;;;;5057373;28;20041;-78
2021/03/21 00:08:33;;;;;;;5.15;3.92;;;4.60;68.20;;;;;;5057936;28;20044;-78
2021/03/21 00:11:07;;;;;;;4.78;3.70;;;4.60;68.20;;;;;;5057315;28;20037;-78
2021/03/21 00:13:33;;;;;;;5.25;3.78;;;4.70;67.80;;;;;;5057456;28;20057;-78
2021/03/21 00:16:00;;;;;;;4.05;3.47;;;4.70;66.70;;;;;;5057568;28;20037;-78
2021/03/21 00:18:30;;;;;;;7.65;5.43;;;4.60;67.60;;;;;;5057615;28;20044;-78
2021/03/21 00:20:56;;;;;;;5.55;4.18;;;4.60;67.60;;;;;;5057434;28;20041;-78
2021/03/21 00:23:22;;;;;;;8.40;4.03;;;4.40;68.80;;;;;;5057414;28;20067;-77
2021/03/21 00:25:49;;;;;;;6.07;4.00;;;4.30;70.10;;;;;;5057300;28;20036;-77
2021/03/21 00:28:18;;;;;;;6.80;4.32;;;4.30;69.90;;;;;;5057441;28;20484;-78
2021/03/21 00:30:45;;;;;;;6.70;4.30;;;4.20;71.00;;;;;;5057317;28;20495;-78
2021/03/21 00:33:14;;;;;;;6.75;4.13;;;4.00;72.10;;;;;;5057163;28;20048;-78
2021/03/21 00:35:40;;;;;;;6.63;4.00;;;3.90;72.90;;;;;;5056795;28;20049;-77
2021/03/21 00:38:09;;;;;;;5.60;3.80;;;3.90;74.40;;;;;;5057002;28;20069;-78
2021/03/21 00:40:35;;;;;;;6.50;4.40;;;3.80;75.30;;;;;;5057204;28;20037;-77
2021/03/21 00:43:02;;;;;;;6.22;4.50;;;3.80;75.40;;;;;;5057180;28;20124;-78
2021/03/21 00:45:30;;;;;;;5.80;4.60;;;3.80;75.50;;;;;;5055703;28;20124;-78
2021/03/21 00:47:56;;;;;;;6.07;4.22;;;3.90;75.40;;;;;;5056692;28;20127;-78
2021/03/21 00:50:32;;;;;;;6.70;4.47;;;3.90;74.40;;;;;;5055933;28;20068;-78
2021/03/21 00:52:59;;;;;;;6.80;3.92;;;4.00;73.70;;;;;;5055586;28;20105;-77
2021/03/21 00:55:25;;;;;;;7.53;4.45;;;4.20;73.10;;;;;;5056527;28;20037;-78
2021/03/21 00:57:51;;;;;;;8.25;4.55;;;4.00;73.90;;;;;;5056674;28;20460;-78
2021/03/21 01:00:27;;;;;;;7.68;4.60;;;4.10;73.90;;;;;;5056723;28;20128;-78
2021/03/21 01:02:53;;;;;;;7.30;4.97;;;4.00;75.40;;;;;;5057318;28;20138;-78
2021/03/21 01:05:21;;;;;;;6.32;4.78;;;3.90;76.70;;;;;;5056339;28;20041;-78
2021/03/21 01:07:49;;;;;;;6.32;4.63;;;3.90;76.70;;;;;;5056697;28;20037;-77
2021/03/21 01:10:15;;;;;;;6.70;4.97;;;3.80;76.70;;;;;;5056297;28;20483;-78
2021/03/21 01:12:41;;;;;;;7.05;4.50;;;3.60;79.50;;;;;;5056284;28;20045;-78
2021/03/21 01:15:07;;;;;;;6.75;4.40;;;3.70;77.40;;;;;;5056326;28;20041;-78
2021/03/21 01:17:33;;;;;;;6.72;4.75;;;3.80;77.50;;;;;;5056018;28;20041;-77
2021/03/21 01:19:59;;;;;;;4.97;4.18;;;3.70;78.60;;;;;;5056064;28;20044;-78
2021/03/21 01:22:25;;;;;;;6.72;4.72;;;3.60;78.40;;;;;;5056308;28;20046;-77
2021/03/21 01:24:50;;;;;;;6.35;4.32;;;3.50;79.80;;;;;;5056342;28;20037;-77
2021/03/21 01:27:16;;;;;;;7.13;4.78;;;3.50;79.60;;;;;;5056814;28;20063;-77
2021/03/21 01:29:42;;;;;;;6.32;5.18;;;3.60;79.00;;;;;;5055625;28;20039;-78
2021/03/21 01:32:08;;;;;;;5.95;4.22;;;3.60;80.30;;;;;;5055841;28;20041;-78
2021/03/21 01:34:35;;;;;;;5.85;4.75;;;3.60;80.10;;;;;;5055953;28;20045;-77
2021/03/21 01:37:01;;;;;;;8.70;4.90;;;3.50;80.70;;;;;;5056689;28;20052;-78
2021/03/21 01:39:27;;;;;;;6.03;4.35;;;3.50;80.70;;;;;;5056212;28;20040;-78
2021/03/21 01:42:00;;;;;;;7.40;4.60;;;3.40;80.30;;;;;;5056462;28;20043;-78
2021/03/21 01:44:25;;;;;;;8.43;4.57;;;3.50;81.50;;;;;;5055868;28;20132;-78
2021/03/21 01:46:51;;;;;;;5.43;4.20;;;3.40;81.50;;;;;;5056266;28;20121;-78
2021/03/21 01:49:27;;;;;;;6.82;4.50;;;3.50;80.30;;;;;;5055776;28;20059;-78
2021/03/21 01:51:56;;;;;;;6.85;4.78;;;3.50;80.90;;;;;;5056099;28;20120;-78
2021/03/21 01:54:24;;;;;;;6.15;4.72;;;3.50;80.90;;;;;;5055542;28;20040;-78
2021/03/21 01:56:51;;;;;;;6.38;4.80;;;3.50;81.00;;;;;;5055877;28;20041;-78
2021/03/21 01:59:43;;;;;;;6.25;4.90;;;3.50;81.60;;;;;;5055554;28;20074;-78
2021/03/21 02:02:11;;;;;;;8.02;4.88;;;3.50;81.20;;;;;;5053677;28;20072;-78
2021/03/21 02:04:37;;;;;;;6.22;4.68;;;3.50;82.50;;;;;;5055976;28;20119;-78
2021/03/21 02:07:29;;;;;;;7.78;4.68;;;3.40;82.80;;;;;;5056000;28;20464;-78
2021/03/21 02:10:17;;;;;;;7.80;4.90;;;3.60;81.50;;;;;;5055826;28;20480;-78
2021/03/21 02:13:00;;;;;;;6.63;4.57;;;3.50;80.40;;;;;;5055401;28;20048;-77
2021/03/21 02:15:29;;;;;;;7.55;5.03;;;3.60;80.80;;;;;;5055234;28;20479;-78
2021/03/21 02:18:28;;;;;;;7.47;4.47;;;3.60;82.00;;;;;;5055376;28;20071;-78
2021/03/21 02:21:08;;;;;;;7.57;4.95;;;3.70;81.40;;;;;;5055422;28;20040;-78
2021/03/21 02:24:10;;;;;;;7.00;4.80;;;3.70;81.30;;;;;;5055786;28;20127;-78
2021/03/21 02:26:47;;;;;;;7.45;5.07;;;3.60;80.70;;;;;;5054427;28;20127;-78
2021/03/21 02:29:42;;;;;;;7.68;4.78;;;3.70;80.90;;;;;;5054833;28;20072;-78
2021/03/21 02:32:14;;;;;;;8.38;4.80;;;3.80;80.00;;;;;;5054979;28;20067;-78
2021/03/21 02:35:01;;;;;;;6.50;4.70;;;3.70;81.30;;;;;;5055297;28;20041;-78
2021/03/21 02:37:34;;;;;;;7.28;5.47;;;3.60;82.40;;;;;;5055125;28;20044;-78
2021/03/21 02:40:20;;;;;;;7.20;4.93;;;3.60;83.70;;;;;;5055224;28;20537;-78
2021/03/21 02:42:56;;;;;;;7.15;5.05;;;3.60;83.60;;;;;;5050357;28;20568;-78
2021/03/21 02:45:29;;;;;;;6.80;5.20;;;3.60;81.20;;;;;;5054835;28;20044;-78
2021/03/21 02:48:02;;;;;;;8.10;5.00;;;3.50;83.30;;;;;;5055243;28;20063;-78
2021/03/21 02:50:34;;;;;;;9.00;4.65;;;3.50;83.90;;;;;;5054412;28;20614;-78
2021/03/21 02:53:19;;;;;;;5.85;4.55;;;3.50;84.30;;;;;;5054693;28;20065;-78
2021/03/21 02:55:50;;;;;;;7.05;5.03;;;3.60;83.40;;;;;;5055032;28;20520;-78
2021/03/21 02:58:24;;;;;;;7.03;5.20;;;3.80;81.20;;;;;;5054857;28;20063;-78
2021/03/21 03:01:16;;;;;;;9.25;5.35;;;3.90;81.00;;;;;;5054738;28;20037;-78
2021/03/21 03:03:47;;;;;;;7.07;4.90;;;3.90;80.50;;;;;;5055059;28;20032;-78
2021/03/21 03:06:21;;;;;;;7.20;5.32;;;3.90;83.20;;;;;;5054832;28;20051;-78
2021/03/21 03:08:52;;;;;;;7.00;5.18;;;3.80;82.80;;;;;;5054786;28;20045;-78
2021/03/21 03:11:32;;;;;;;8.57;5.45;;;3.80;83.40;;;;;;5054470;28;20094;-78
2021/03/21 03:14:02;;;;;;;7.78;5.28;;;3.80;82.80;;;;;;5054483;28;20052;-78
2021/03/21 03:16:46;;;;;;;8.25;5.55;;;3.80;83.30;;;;;;5054699;28;20040;-77
2021/03/21 03:19:42;;;;;;;6.50;4.95;;;3.80;83.50;;;;;;5054994;28;20124;-78
2021/03/21 03:22:27;;;;;;;8.93;5.07;;;3.80;81.80;;;;;;5055119;28;20094;-78
2021/03/21 03:25:01;;;;;;;6.32;4.88;;;3.80;83.10;;;;;;5054283;28;20147;-78
2021/03/21 03:27:39;;;;;;;8.75;5.35;;;3.70;85.20;;;;;;5054608;28;20501;-77
2021/03/21 03:30:11;;;;;;;7.55;4.95;;;3.80;83.50;;;;;;5054024;28;20518;-78
2021/03/21 03:32:37;;;;;;;8.02;5.75;;;3.70;83.40;;;;;;5054628;28;20057;-78
2021/03/21 03:35:07;;;;;;;7.07;5.10;;;3.60;85.40;;;;;;5053626;28;20051;-78
2021/03/21 03:37:33;;;;;;;8.75;5.35;;;3.60;84.00;;;;;;5054393;28;20048;-78
2021/03/21 03:39:59;;;;;;;5.75;4.68;;;3.60;84.70;;;;;;5058079;28;20040;-78
2021/03/21 03:42:27;;;;;;;10.45;6.05;;;3.50;86.30;;;;;;5057884;28;20048;-78
2021/03/21 03:45:08;;;;;;;6.43;5.07;;;3.50;87.70;;;;;;5057702;28;20037;-78
2021/03/21 03:47:43;;;;;;;8.73;5.72;;;3.50;88.10;;;;;;5058394;28;20429;-78
2021/03/21 03:50:24;;;;;;;7.10;5.60;;;3.40;87.90;;;;;;5058238;28;20487;-78
2021/03/21 03:53:25;;;;;;;10.57;6.40;;;3.50;86.80;;;;;;5058170;28;20055;-78
2021/03/21 03:56:15;;;;;;;8.23;5.75;;;3.60;86.80;;;;;;5054393;28;20033;-78
2021/03/21 03:58:46;;;;;;;8.13;5.50;;;3.60;88.20;;;;;;5057283;28;20467;-78
2021/03/21 04:01:21;;;;;;;7.22;5.65;;;3.60;86.20;;;;;;5057801;28;20120;-78
2021/03/21 04:03:57;;;;;;;10.45;5.78;;;3.60;86.50;;;;;;5057860;28;20041;-78
2021/03/21 04:06:32;;;;;;;7.63;5.47;;;3.60;86.60;;;;;;5057336;28;20123;-78
2021/03/21 04:09:19;;;;;;;8.45;5.88;;;3.60;87.50;;;;;;5058015;28;20040;-78
2021/03/21 04:12:07;;;;;;;8.38;6.05;;;3.50;88.20;;;;;;5057697;28;20041;-78
2021/03/21 04:14:45;;;;;;;7.85;5.88;;;3.50;88.70;;;;;;5057339;28;20048;-77
2021/03/21 04:17:14;;;;;;;8.75;5.95;;;3.50;88.50;;;;;;5057585;28;20033;-78
2021/03/21 04:19:55;;;;;;;9.52;6.38;;;3.50;88.70;;;;;;5057500;28;20065;-78
2021/03/21 04:22:29;;;;;;;9.48;6.38;;;3.50;88.70;;;;;;5057805;28;20095;-79
2021/03/21 04:25:30;;;;;;;6.47;5.50;;;3.50;88.70;;;;;;5057533;28;20086;-78
2021/03/21 04:28:07;;;;;;;9.65;6.13;;;3.50;87.90;;;;;;5034856;28;20044;-78
2021/03/21 04:30:38;;;;;;;8.65;5.90;;;3.60;86.00;;;;;;5054366;28;20044;-78
2021/03/21 04:33:09;;;;;;;6.93;5.70;;;3.60;85.10;;;;;;5057310;28;20044;-78
2021/03/21 04:35:53;;;;;;;7.70;5.97;;;3.70;85.90;;;;;;5056718;28;20056;-78
2021/03/21 04:38:36;;;;;;;7.22;5.30;;;3.70;83.10;;;;;;5057486;28;20037;-78
2021/03/21 04:41:05;;;;;;;7.53;5.53;;;3.80;82.10;;;;;;5056987;28;20041;-78
2021/03/21 04:43:39;;;;;;;6.95;4.95;;;3.80;82.20;;;;;;5056568;28;20436;-78
2021/03/21 04:46:12;;;;;;;7.95;6.00;;;3.90;80.70;;;;;;5057028;28;20033;-78
2021/03/21 04:48:38;;;;;;;7.93;5.68;;;3.90;80.90;;;;;;5057187;28;20040;-78
2021/03/21 04:51:11;;;;;;;7.18;5.75;;;3.90;80.60;;;;;;5056138;28;20045;-78
2021/03/21 04:53:42;;;;;;;7.35;5.78;;;3.90;81.50;;;;;;5057122;28;20048;-78
2021/03/21 04:56:29;;;;;;;7.88;5.78;;;3.80;82.40;;;;;;5056497;28;20041;-78
2021/03/21 04:59:05;;;;;;;9.15;5.82;;;3.70;82.90;;;;;;5056447;28;20051;-78
2021/03/21 05:01:59;;;;;;;7.03;5.68;;;3.80;83.20;;;;;;5056752;28;20094;-78
2021/03/21 05:04:30;;;;;;;9.70;5.93;;;3.80;83.80;;;;;;5056201;28;20460;-78
2021/03/21 05:07:33;;;;;;;8.05;6.55;;;3.70;83.70;;;;;;5056366;28;20087;-78
2021/03/21 05:10:15;;;;;;;8.60;5.75;;;3.60;82.90;;;;;;5055949;28;20040;-78
2021/03/21 05:13:02;;;;;;;8.95;5.90;;;3.70;82.70;;;;;;5056901;28;20506;-78
2021/03/21 05:15:47;;;;;;;6.47;5.25;;;3.70;82.30;;;;;;5056398;28;20198;-78
2021/03/21 05:18:38;;;;;;;9.70;6.45;;;3.70;83.10;;;;;;5056351;28;20083;-78
2021/03/21 05:21:18;;;;;;;8.50;6.55;;;3.70;83.80;;;;;;5056226;28;20138;-78
2021/03/21 05:23:57;;;;;;;10.15;6.25;;;3.70;83.80;;;;;;5054893;28;20507;-78
2021/03/21 05:26:39;;;;;;;9.70;6.97;;;3.70;84.30;;;;;;5056041;28;20072;-78
2021/03/21 05:29:35;;;;;;;8.85;6.68;;;3.70;84.20;;;;;;5055787;28;20377;-78
2021/03/21 05:32:01;;;;;;;9.48;6.60;;;3.60;84.40;;;;;;5056488;28;20030;-78
2021/03/21 05:34:27;;;;;;;9.30;6.43;;;3.60;84.00;;;;;;5055935;28;20033;-78
2021/03/21 05:36:56;;;;;;;8.88;5.85;;;3.60;84.70;;;;;;5056280;28;20059;-78
2021/03/21 05:39:22;;;;;;;8.95;5.82;;;3.60;83.60;;;;;;5055999;28;20044;-78
2021/03/21 05:41:59;;;;;;;7.72;5.93;;;3.60;82.40;;;;;;5056527;28;20037;-78
2021/03/21 05:44:47;;;;;;;6.22;5.40;;;3.70;82.70;;;;;;5056106;28;20049;-78
2021/03/21 05:47:50;;;;;;;8.93;6.95;;;3.70;82.60;;;;;;5055757;28;20036;-78
2021/03/21 05:50:46;;;;;;;10.88;6.10;;;3.70;82.40;;;;;;5056087;28;20043;-78
2021/03/21 05:53:47;;;;;;;10.27;6.43;;;3.70;82.50;;;;;;5056279;28;20052;-78
2021/03/21 05:56:33;;;;;;;10.40;6.90;;;3.70;82.50;;;;;;5033411;28;20064;-78
2021/03/21 05:59:38;;;;;;;7.55;5.40;;;3.70;83.30;;;;;;5055593;28;20036;-77
2021/03/21 06:02:15;;;;;;;8.65;6.18;;;3.70;81.70;;;;;;5055137;28;20487;-78
2021/03/21 06:05:10;;;;;;;8.07;5.95;;;3.70;81.10;;;;;;5056290;28;20122;-77
2021/03/21 06:08:17;;;;;;;8.30;6.38;;;3.80;81.40;;;;;;5055468;28;20545;-78
2021/03/21 06:11:11;;;;;;;8.43;6.15;;;3.80;82.30;;;;;;5035021;28;20044;-78
2021/03/21 06:13:42;;;;;;;8.52;6.20;;;3.70;82.30;;;;;;5055729;28;20045;-78
2021/03/21 06:16:24;;;;;;;8.48;6.30;;;3.70;83.50;;;;;;5055402;28;20058;-78
2021/03/21 06:18:53;;;;;;;7.55;5.95;;;3.70;83.20;;;;;;5055367;28;20043;-78
2021/03/21 06:21:46;;;;;;;8.82;6.45;;;3.60;82.80;;;;;;5055492;28;20127;-78
2021/03/21 06:24:27;;;;;;;7.85;6.20;;;3.60;84.30;;;;;;5054436;28;20524;-77
2021/03/21 06:27:07;;;;;;;8.50;6.55;;;3.60;85.50;;;;;;5054923;28;20048;-77
2021/03/21 06:29:58;;;;;;;8.65;6.70;;;3.50;87.60;;;;;;5053460;28;20116;-77
2021/03/21 06:32:32;;;;;;;10.80;7.40;;;3.50;88.20;;;;;;5051208;28;20044;-78
2021/03/21 06:35:25;;;;;;;10.30;7.03;;;3.60;89.00;;;;;;5051749;28;20033;-77
2021/03/21 06:38:00;;;;;;;13.63;8.27;;;3.50;89.60;;;;;;5042393;28;20045;-77
2021/03/21 06:41:00;;;;;;;8.57;6.90;;;3.50;90.60;;;;;;5052232;28;20112;-78
2021/03/21 06:43:28;;;;;;;11.57;7.43;;;3.50;90.20;;;;;;5053064;28;20045;-78
2021/03/21 06:46:27;;;;;;;10.82;8.10;;;3.50;91.10;;;;;;5052494;28;20087;-77
2021/03/21 06:49:11;;;;;;;10.68;7.72;;;3.50;91.70;;;;;;5053601;28;20040;-78
2021/03/21 06:52:01;;;;;;;11.85;8.77;;;3.60;91.10;;;;;;5053540;28;20041;-78
2021/03/21 06:54:48;;;;;;;9.50;7.45;;;3.50;91.40;;;;;;5053663;28;20045;-78
2021/03/21 06:57:36;;;;;;;10.25;7.63;;;3.40;91.70;;;;;;5054494;28;20503;-78
2021/03/21 07:00:23;;;;;;;10.77;7.93;;;3.50;92.40;;;;;;5054531;28;20041;-76
2021/03/21 07:02:57;;;;;;;9.52;7.88;;;3.50;91.90;;;;;;5054800;28;20037;-75
2021/03/21 07:05:45;;;;;;;9.55;6.95;;;3.50;91.40;;;;;;5054761;28;20515;-75
2021/03/21 07:08:44;;;;;;;9.80;7.30;;;3.60;92.30;;;;;;5053592;28;20479;-78
2021/03/21 07:11:35;;;;;;;9.48;7.07;;;3.60;91.70;;;;;;5054257;28;20500;-77
2021/03/21 07:14:03;;;;;;;8.98;7.10;;;3.60;91.90;;;;;;5053667;28;20049;-78
2021/03/21 07:16:58;;;;;;;10.30;7.50;;;3.70;91.40;;;;;;5054060;28;20033;-78
2021/03/21 07:20:12;;;;;;;9.18;7.43;;;3.60;91.40;;;;;;5050123;28;20171;-78
2021/03/21 07:22:41;;;;;;;10.43;7.40;;;3.50;92.50;;;;;;5034758;28;20037;-78
2021/03/21 07:25:22;;;;;;;11.65;7.72;;;3.40;92.30;;;;;;5053994;28;20120;-77
2021/03/21 07:27:57;;;;;;;;;;;3.30;93.30;;;;;;5054414;28;20041;-78
2021/03/21 07:30:36;;;;;;;10.77;7.90;;;3.30;93.80;;;;;;5052642;28;19915;-78
2021/03/21 07:33:16;;;;;;;11.07;7.60;;;3.30;93.70;;;;;;5052664;28;20049;-78
2021/03/21 07:35:56;;;;;;;11.27;7.88;;;3.40;93.50;;;;;;5052987;28;20111;-78
2021/03/21 07:39:07;;;;;;;9.63;7.53;;;3.40;94.10;;;;;;5052760;28;20147;-79
2021/03/21 07:41:33;;;;;;;;;;;3.50;94.30;;;;;;5053972;28;20116;-79
2021/03/21 07:44:01;;;;;;;10.50;7.97;;;3.60;94.10;;;;;;5052485;28;19944;-78
2021/03/21 07:46:55;;;;;;;10.73;8.23;;;3.50;93.40;;;;;;5053716;28;20036;-78
2021/03/21 07:50:05;;;;;;;10.35;8.18;;;3.60;93.80;;;;;;5053526;28;20037;-78
2021/03/21 07:52:37;;;;;;;11.43;7.38;;;3.60;93.50;;;;;;5048988;28;20029;-78
2021/03/21 07:55:12;;;;;;;9.68;7.85;;;3.70;92.70;;;;;;5053929;28;20166;-80
2021/03/21 07:57:44;;;;;;;10.20;7.40;;;3.80;92.90;;;;;;5053175;28;20384;-77
2021/03/21 08:00:13;;;;;;;10.98;8.07;;;3.90;92.90;;;;;;5054041;28;20036;-78
2021/03/21 08:02:39;;;;;;;10.23;7.90;;;4.00;92.90;;;;;;5054274;28;20158;-78
2021/03/21 08:05:16;;;;;;;9.35;7.47;;;4.00;92.20;;;;;;5053675;28;20037;-78
2021/03/21 08:07:45;;;;;;;9.70;7.30;;;4.00;91.30;;;;;;5053776;28;20487;-78
2021/03/21 08:10:29;;;;;;;12.25;8.30;;;4.10;91.10;;;;;;5054021;28;20041;-78
2021/03/21 08:13:07;;;;;;;10.00;7.78;;;4.20;90.70;;;;;;5053871;28;20102;-77
2021/03/21 08:15:37;;;;;;;12.02;7.72;;;4.40;91.10;;;;;;5053935;28;20040;-78
2021/03/21 08:18:28;;;;;;;12.85;8.40;;;4.50;89.20;;;;;;5052791;28;20541;-78
2021/03/21 08:21:02;;;;;;;11.35;7.55;;;4.70;90.60;;;;;;5054004;28;20048;-76
2021/03/21 08:23:30;;;;;;;9.93;7.80;;;4.80;88.30;;;;;;5053341;28;20033;-76
2021/03/21 08:26:01;;;;;;;9.27;7.45;;;4.90;87.80;;;;;;5055921;28;20128;-77
2021/03/21 08:28:35;;;;;;;9.00;7.45;;;5.10;86.60;;;;;;5056901;28;20052;-74
2021/03/21 08:31:07;;;;;;;9.45;7.53;;;5.30;87.00;;;;;;5056281;28;20045;-77
2021/03/21 08:33:39;;;;;;;8.60;7.32;;;5.30;85.10;;;;;;5056491;28;20047;-76
2021/03/21 08:36:24;;;;;;;10.52;7.55;;;5.60;84.30;;;;;;5056294;28;20056;-77
2021/03/21 08:39:27;;;;;;;10.68;8.00;;;5.50;83.70;;;;;;5037240;28;20071;-77
2021/03/21 08:41:56;;;;;;;9.50;7.80;;;5.50;84.90;;;;;;5037387;28;20572;-77
2021/03/21 08:44:39;;;;;;;9.93;7.75;;;5.70;81.70;;;;;;5036595;28;20049;-77
2021/03/21 08:47:16;;;;;;;11.38;8.07;;;5.80;82.70;;;;;;5036894;28;20033;-77
2021/03/21 08:49:48;;;;;;;10.52;7.65;;;5.80;81.50;;;;;;5037562;28;20039;-77
2021/03/21 08:52:28;;;;;;;8.95;7.22;;;6.00;83.40;;;;;;5068852;28;20041;-77
2021/03/21 08:54:57;;;;;;;10.05;7.93;;;5.90;80.90;;;;;;5036809;28;20497;-77
2021/03/21 08:57:30;;;;;;;10.18;7.95;;;6.00;81.80;;;;;;5036686;28;20033;-77
2021/03/21 09:00:19;;;;;;;11.38;8.15;;;6.10;81.80;;;;;;5036877;28;20160;-77
2021/03/21 09:02:45;;;;;;;13.10;8.63;;;6.30;81.90;;;;;;5036666;28;20128;-76
2021/03/21 09:05:13;;;;;;;10.38;7.72;;;6.20;81.60;;;;;;5036862;28;20120;-77
2021/03/21 09:07:42;;;;;;;8.73;7.82;;;6.40;83.70;;;;;;5036979;28;20042;-77
2021/03/21 09:10:10;;;;;;;12.10;8.50;;;6.40;82.60;;;;;;5036496;28;20041;-77
2021/03/21 09:12:40;;;;;;;10.30;8.50;;;6.30;78.90;;;;;;5036353;28;20152;-77
2021/03/21 09:15:21;;;;;;;12.18;9.32;;;6.20;80.70;;;;;;5036944;28;20510;-77
2021/03/21 09:18:17;;;;;;;10.95;8.48;;;6.10;84.90;;;;;;5036681;28;20067;-77
2021/03/21 09:20:57;;;;;;;11.05;8.98;;;6.30;83.50;;;;;;5035974;28;20130;-77
2021/03/21 09:23:35;;;;;;;10.23;9.00;;;6.30;82.70;;;;;;5067984;28;20046;-77
2021/03/21 09:26:04;;;;;;;12.50;9.02;;;6.40;83.10;;;;;;5035895;28;20037;-77
2021/03/21 09:28:35;;;;;;;9.43;8.32;;;6.50;82.40;;;;;;5035753;28;20039;-77
2021/03/21 09:31:04;;;;;;;10.77;7.95;;;6.30;83.10;;;;;;5034914;28;20056;-76
2021/03/21 09:33:41;;;;;;;8.77;7.68;;;6.30;83.30;;;;;;5035636;28;20052;-76
2021/03/21 09:36:23;;;;;;;10.63;8.38;;;6.40;80.80;;;;;;5053007;28;20064;-77
2021/03/21 09:39:18;;;;;;;10.45;8.77;;;6.60;82.50;;;;;;5055387;28;20377;-76
2021/03/21 09:41:48;;;;;;;10.95;7.88;;;6.40;83.40;;;;;;5055239;28;20033;-77
2021/03/21 09:44:36;;;;;;;11.17;9.10;;;6.50;81.10;;;;;;5053942;28;20492;-76
2021/03/21 09:47:23;;;;;;;10.18;8.57;;;6.10;82.80;;;;;;5055815;28;20029;-76
2021/03/21 09:50:01;;;;;;;10.02;8.80;;;6.10;83.90;;;;;;5054199;28;20033;-76
2021/03/21 09:52:54;;;;;;;14.65;9.88;;;6.20;84.40;;;;;;5055483;28;20059;-76
2021/03/21 09:55:32;;;;;;;13.43;9.75;;;6.20;85.90;;;;;;5055440;28;20510;-76
2021/03/21 09:58:21;;;;;;;13.50;8.68;;;6.20;84.50;;;;;;5055687;28;20085;-76
2021/03/21 10:01:00;;;;;;;11.52;8.93;;;6.20;84.60;;;;;;5055569;28;20041;-76
2021/03/21 10:03:33;;;;;;;13.60;9.48;;;6.50;82.80;;;;;;5055838;28;20498;-76
2021/03/21 10:06:12;;;;;;;11.95;8.60;;;6.70;82.10;;;;;;5055414;28;20389;-76
2021/03/21 10:09:07;;;;;;;11.32;8.18;;;6.90;81.00;;;;;;5055531;28;20510;-76
2021/03/21 10:11:47;;;;;;;10.68;8.32;;;7.20;76.70;;;;;;5053394;28;20036;-76
2021/03/21 10:14:22;;;;;;;10.20;8.75;;;7.40;75.90;;;;;;5055611;28;20080;-76
2021/03/21 10:16:49;;;;;;;11.98;8.40;;;7.50;77.00;;;;;;5055113;28;20029;-76
2021/03/21 10:19:39;;;;;;;9.82;7.72;;;7.60;76.60;;;;;;5055232;28;20036;-77
2021/03/21 10:22:17;;;;;;;12.48;8.18;;;7.70;75.60;;;;;;5054018;28;20029;-77
2021/03/21 10:24:51;;;;;;;10.27;8.80;;;7.80;72.20;;;;;;5054675;28;20553;-77
2021/03/21 10:27:18;;;;;;;7.90;6.80;;;7.80;74.10;;;;;;5053939;28;20511;-76
2021/03/21 10:30:01;;;;;;;8.80;7.88;;;8.10;69.90;;;;;;5054337;28;20041;-78
2021/03/21 10:32:30;;;;;;;8.15;6.78;;;8.50;71.10;;;;;;5054830;28;20033;-78
2021/03/21 10:34:57;;;;;;;9.73;7.75;;;9.20;68.70;;;;;;5052365;28;20052;-78
2021/03/21 10:38:02;;;;;;;11.88;8.40;;;9.00;68.10;;;;;;5053833;28;20040;-78
2021/03/21 10:40:31;;;;;;;11.13;9.10;;;8.50;71.20;;;;;;5054433;28;20036;-78
2021/03/21 10:43:10;;;;;;;11.23;9.00;;;8.70;70.70;;;;;;5054077;28;20040;-78
2021/03/21 10:45:35;;;;;;;11.63;9.57;;;8.70;70.20;;;;;;5055203;28;20045;-78
2021/03/21 10:48:14;;;;;;;11.60;8.93;;;8.60;71.30;;;;;;5053740;28;20083;-78
2021/03/21 10:50:57;;;;;;;10.93;8.85;;;8.70;70.60;;;;;;5055094;28;20091;-78
2021/03/21 10:53:39;;;;;;;9.63;8.43;;;8.80;69.80;;;;;;5054415;28;20091;-78
2021/03/21 10:56:16;;;;;;;11.95;9.23;;;8.90;69.60;;;;;;5053777;28;20339;-79
2021/03/21 10:58:54;;;;;;;14.00;10.90;;;8.80;71.10;;;;;;5054162;28;20120;-78
2021/03/21 11:01:27;;;;;;;11.32;8.05;;;9.00;72.30;;;;;;5054243;28;20383;-78
2021/03/21 11:04:02;;;;;;;9.32;8.38;;;8.80;64.60;;;;;;5054300;28;20068;-79
2021/03/21 11:06:30;;;;;;;10.15;9.02;;;9.00;67.30;;;;;;5054717;28;20119;-79
2021/03/21 11:09:11;;;;;;;10.68;8.25;;;8.90;68.40;;;;;;5054946;28;20087;-80
2021/03/21 11:11:39;;;;;;;;;;;8.90;69.20;;;;;;5053963;28;20052;-79
2021/03/21 11:14:15;;;;;;;11.77;9.77;;;8.80;67.00;;;;;;5053338;28;19913;-79
2021/03/21 11:16:59;;;;;;;12.68;9.48;;;8.90;70.20;;;;;;5052823;28;20134;-79
2021/03/21 11:19:33;;;;;;;13.25;11.10;;;9.00;68.70;;;;;;5053120;28;20047;-79
2021/03/21 11:22:09;;;;;;;10.43;9.05;;;9.20;70.70;;;;;;5053709;28;20044;-79
2021/03/21 11:24:36;;;;;;;10.98;8.05;;;9.30;70.70;;;;;;5054322;28;20033;-78
2021/03/21 11:27:10;;;;;;;11.38;8.27;;;9.50;68.40;;;;;;5054626;28;20043;-78
2021/03/21 11:29:39;;;;;;;12.95;10.15;;;9.60;66.80;;;;;;5053736;28;20041;-75
2021/03/21 11:32:22;;;;;;;11.32;8.30;;;9.40;67.70;;;;;;5054535;28;20036;-78
2021/03/21 11:35:23;;;;;;;10.38;8.00;;;9.40;67.60;;;;;;5054419;28;20037;-78
2021/03/21 11:37:49;;;;;;;9.32;8.32;;;9.60;65.50;;;;;;5052444;28;20110;-78
2021/03/21 11:40:22;;;;;;;10.20;9.07;;;9.90;65.40;;;;;;5054094;28;20124;-78
2021/03/21 11:43:03;;;;;;;9.40;8.32;;;10.20;65.60;;;;;;5053357;28;20499;-78
2021/03/21 11:45:32;;;;;;;;;;;9.90;65.00;;;;;;5054261;28;20071;-78
2021/03/21 11:48:12;;;;;;;14.15;9.55;;;10.30;64.90;;;;;;5054355;28;19971;-78
2021/03/21 11:50:41;;;;;;;10.90;8.75;;;10.30;64.00;;;;;;5054167;28;20115;-78
2021/03/21 11:53:17;;;;;;;9.38;8.38;;;10.40;63.00;;;;;;5054005;28;20052;-78
2021/03/21 11:55:50;;;;;;;11.55;9.10;;;10.80;63.80;;;;;;5054237;28;20514;-78
2021/03/21 11:58:57;;;;;;;10.73;9.32;;;10.50;62.90;;;;;;5054167;28;20037;-78
2021/03/21 12:01:41;;;;;;;10.25;9.00;;;10.40;63.30;;;;;;5056669;28;20032;-78
2021/03/21 12:04:11;;;;;;;10.23;8.13;;;10.20;62.40;;;;;;5058099;28;20048;-78
2021/03/21 12:06:45;;;;;;;9.77;8.27;;;10.50;62.10;;;;;;5058093;28;20052;-78
2021/03/21 12:09:22;;;;;;;9.82;8.57;;;10.10;62.60;;;;;;5058570;28;20033;-78
2021/03/21 12:11:48;;;;;;;10.50;8.90;;;10.10;62.60;;;;;;5058200;28;20041;-78
2021/03/21 12:14:30;;;;;;;10.68;8.95;;;10.10;62.90;;;;;;5057671;28;20045;-78
2021/03/21 12:16:59;;;;;;;10.23;8.98;;;10.30;62.20;;;;;;5057903;28;20543;-78
2021/03/21 12:19:34;;;;;;;13.57;10.20;;;10.10;64.00;;;;;;5058201;28;20059;-78
2021/03/21 12:22:06;;;;;;;11.38;8.73;;;10.50;61.50;;;;;;5056958;28;20464;-78
2021/03/21 12:24:34;;;;;;;9.60;8.60;;;10.40;62.00;;;;;;5057236;28;20044;-78
2021/03/21 12:27:04;;;;;;;11.63;9.32;;;10.60;61.40;;;;;;5057568;28;20040;-75
2021/03/21 12:29:35;;;;;;;10.43;9.02;;;10.40;63.00;;;;;;5057070;28;20119;-78
2021/03/21 12:32:29;;;;;;;10.23;9.23;;;10.30;63.00;;;;;;5057378;28;20045;-78
2021/03/21 12:34:56;;;;;;;10.25;9.20;;;10.40;64.00;;;;;;5057036;28;20040;-76
2021/03/21 12:37:29;;;;;;;10.27;8.90;;;10.30;62.40;;;;;;5056945;28;20033;-78
2021/03/21 12:40:12;;;;;;;11.13;9.15;;;10.40;61.10;;;;;;5055917;28;20037;-78
2021/03/21 12:42:41;;;;;;;10.40;8.90;;;10.10;61.50;;;;;;5055701;28;20505;-78
2021/03/21 12:45:14;;;;;;;13.35;11.30;;;10.30;62.90;;;;;;5055220;28;20507;-79
2021/03/21 12:47:42;;;;;;;12.07;9.82;;;10.10;61.50;;;;;;5053805;28;20396;-78
2021/03/21 12:50:31;;;;;;;11.43;9.98;;;9.90;62.20;;;;;;5055914;28;20072;-78
2021/03/21 12:52:57;;;;;;;11.65;10.05;;;9.60;63.30;;;;;;5056336;28;20056;-78
2021/03/21 12:55:23;;;;;;;11.05;9.60;;;9.60;63.70;;;;;;5056458;28;20089;-78
2021/03/21 12:57:52;;;;;;;12.18;9.88;;;9.50;64.80;;;;;;5056288;28;20041;-78
2021/03/21 13:00:30;;;;;;;10.98;9.68;;;9.60;64.80;;;;;;5056370;28;20043;-78
2021/03/21 13:02:58;;;;;;;12.75;10.43;;;9.80;63.50;;;;;;5055259;28;20043;-78
2021/03/21 13:05:31;;;;;;;13.02;10.10;;;10.00;64.70;;;;;;5055996;28;20613;-76
2021/03/21 13:07:58;;;;;;;12.45;10.10;;;10.20;63.70;;;;;;5056364;28;20111;-78
2021/03/21 13:10:26;;;;;;;13.10;10.10;;;9.90;64.20;;;;;;5055174;28;20033;-78
2021/03/21 13:12:52;;;;;;;12.43;9.98;;;9.80;63.80;;;;;;5054972;28;20043;-78
2021/03/21 13:15:20;;;;;;;12.77;10.43;;;9.80;64.40;;;;;;5055866;28;20040;-77
2021/03/21 13:17:46;;;;;;;12.82;10.07;;;9.70;64.10;;;;;;5055962;28;20079;-78
2021/03/21 13:20:16;;;;;;;13.10;10.25;;;9.70;64.40;;;;;;5056337;28;20564;-78
2021/03/21 13:22:41;;;;;;;11.32;9.40;;;9.70;66.20;;;;;;5055879;28;20043;-78
2021/03/21 13:25:09;;;;;;;12.35;9.63;;;9.70;65.10;;;;;;5054936;28;20029;-78
2021/03/21 13:27:35;;;;;;;11.20;9.52;;;9.50;64.70;;;;;;5055874;28;20150;-78
2021/03/21 13:30:02;;;;;;;11.13;8.82;;;9.40;64.50;;;;;;5056082;28;20498;-76
2021/03/21 13:32:28;;;;;;;11.05;9.05;;;9.50;65.00;;;;;;5071513;28;20114;-78
2021/03/21 13:34:54;;;;;;;18.80;14.18;;;9.50;64.40;;;;;;5055777;28;20037;-78
2021/03/21 13:37:21;;;;;;;115.03;65.57;;;9.50;63.60;;;;;;5055894;28;20033;-79
2021/03/21 13:39:50;;;;;;;16.95;13.07;;;9.50;65.20;;;;;;5056021;28;20048;-77
2021/03/21 13:42:16;;;;;;;24.27;15.75;;;9.40;64.10;;;;;;5056079;28;20126;-79